Aérodrome :
LOGIN :

S'inscrire | Disclaimer

   EN    FR    IT 

 










Légende :    VFR   VFR Marginal   IFR   IFR Intensif   IFR Très Intensif
Visi : 
Plafond : 
>= 8 km
>= 3000ft
5 à 8 km
1000 à 3000 ft
1500m à 5 km
500 à 1000 ft
800 à 1500m
200 à 500 ft
< 800m
< 200 ft
Symboles :   Orages  Brouillard  Fortes neiges  Fortes précipitations  Vent > 20 kt
SIGMETs :   Divers  Orages  Givrage  Turbulence  Onde Orograph.  Cendres Volcan.






- Altitude de l'aérodrome : 163 ft
- Code IATA : IST


LTBA - Ataturk

DERNIER METAR :
  • 070950Z 24010KT CAVOK 23/14 Q1009 NOSIG RMK RWY17 22013KT RWY05 26010KT RWY23 25014KT

METARs EXPIRÉS :
  • 070920Z 24009KT 210V270 CAVOK 23/16 Q1009 NOSIG RMK RWY17 22011KT RWY05 25009KT RWY23 25012KT
  • 070850Z 24009KT 210V270 CAVOK 23/17 Q1009 NOSIG RMK RWY17 23012KT RWY05 25010KT RWY23 24012KT
  • 070820Z 23010KT 200V260 CAVOK 22/16 Q1009 NOSIG RMK RWY17 21009KT RWY05 24010KT RWY23 24010KT
  • 070750Z 23009KT 190V250 CAVOK 22/17 Q1009 NOSIG RMK RWY17 21010KT RWY05 24010KT RWY23 24011KT
  • 070720Z 22008KT 180V270 CAVOK 22/15 Q1009 NOSIG RMK RWY17 21007KT 180V240 RWY05 24008KT RWY23 24009KT

TAF TAF LTBA
Valide du 07 à 06h jusqu'au 08 à 12h UTC


070440Z 0706/0812 23008KT CAVOK
BECMG 0716/0719 01010KT



MET'MAP, la Météo Aéronautique d'un coup d'oeil ! - Copyright ORBIFLY Décembre 2007 - Disclaimer

ORBIFLY MET'MAP TEAM :

Programmation & Développement : Alexandra Zaïnal
Sur une idée originale de : Baudouin d'Aumeries
Assistance à la programmation : Marc-Olivier Méhu
Soutien technique & logistique : Manuel Goepfert

Contact : metmap@orbifly.com




SOURCES & CREDITS :

   NOAA